sensor_id;sensor_type;location;lat;lon;timestamp;pressure;altitude;pressure_sealevel;temperature;humidity
53089;BME280;38968;47.696;17.540;2023-02-20T00:04:12;10120760.0;;;9.06;45.56152
53089;BME280;38968;47.696;17.540;2023-02-20T00:09:13;10121040.0;;;9.36;45.16797
53089;BME280;38968;47.696;17.540;2023-02-20T00:14:12;10120880.0;;;9.52;45.4375
53089;BME280;38968;47.696;17.540;2023-02-20T00:19:13;10120980.0;;;9.63;45.27734
53089;BME280;38968;47.696;17.540;2023-02-20T00:24:13;10121860.0;;;9.73;44.55176
53089;BME280;38968;47.696;17.540;2023-02-20T00:29:17;10121510.0;;;9.79;44.5
53089;BME280;38968;47.696;17.540;2023-02-20T00:34:13;10121510.0;;;9.79;44.64941
53089;BME280;38968;47.696;17.540;2023-02-20T00:39:13;10122990.0;;;9.78;44.9248
53089;BME280;38968;47.696;17.540;2023-02-20T00:44:13;10122290.0;;;9.67;45.62402
53089;BME280;38968;47.696;17.540;2023-02-20T00:49:13;10122260.0;;;9.3;46.81348
53089;BME280;38968;47.696;17.540;2023-02-20T00:54:13;10122210.0;;;8.82;46.58984
53089;BME280;38968;47.696;17.540;2023-02-20T00:59:13;10122750.0;;;8.98;46.52637
53089;BME280;38968;47.696;17.540;2023-02-20T01:04:12;10122250.0;;;9.24;45.66016
53089;BME280;38968;47.696;17.540;2023-02-20T01:09:13;10123100.0;;;8.98;46.10352
53089;BME280;38968;47.696;17.540;2023-02-20T01:14:13;10122810.0;;;8.72;46.52246
53089;BME280;38968;47.696;17.540;2023-02-20T01:19:13;10122820.0;;;8.83;46.33887
53089;BME280;38968;47.696;17.540;2023-02-20T01:24:13;10123020.0;;;9.12;46.50684
53089;BME280;38968;47.696;17.540;2023-02-20T01:29:13;10123560.0;;;9.31;45.25488
53089;BME280;38968;47.696;17.540;2023-02-20T01:34:13;10124180.0;;;9.38;45.60645
53089;BME280;38968;47.696;17.540;2023-02-20T01:39:20;10124100.0;;;9.48;45.25
53089;BME280;38968;47.696;17.540;2023-02-20T01:44:21;10124540.0;;;9.49;45.74414
53089;BME280;38968;47.696;17.540;2023-02-20T01:49:16;10124110.0;;;9.59;45.49023
53089;BME280;38968;47.696;17.540;2023-02-20T01:54:14;10124380.0;;;9.67;45.54395
53089;BME280;38968;47.696;17.540;2023-02-20T01:59:13;10124200.0;;;9.66;44.88867
53089;BME280;38968;47.696;17.540;2023-02-20T02:04:13;10124180.0;;;9.46;46.25684
53089;BME280;38968;47.696;17.540;2023-02-20T02:09:22;10124500.0;;;9.06;47.625
53089;BME280;38968;47.696;17.540;2023-02-20T02:14:13;10124120.0;;;8.81;48.08984
53089;BME280;38968;47.696;17.540;2023-02-20T02:44:21;10125960.0;;;8.89;47.82422
53089;BME280;38968;47.696;17.540;2023-02-20T02:49:22;10125690.0;;;8.88;47.68457
53089;BME280;38968;47.696;17.540;2023-02-20T02:54:15;10126170.0;;;8.48;47.92676
53089;BME280;38968;47.696;17.540;2023-02-20T02:59:19;10127730.0;;;8.49;48.06641
53089;BME280;38968;47.696;17.540;2023-02-20T03:04:14;10127550.0;;;8.42;48.21875
53089;BME280;38968;47.696;17.540;2023-02-20T03:09:14;10126590.0;;;8.41;49.09766
53089;BME280;38968;47.696;17.540;2023-02-20T03:14:14;10126400.0;;;8.31;50.0127
53089;BME280;38968;47.696;17.540;2023-02-20T03:19:13;10125630.0;;;8.37;50.48828
53089;BME280;38968;47.696;17.540;2023-02-20T03:24:14;10125080.0;;;8.13;51.13379
53089;BME280;38968;47.696;17.540;2023-02-20T03:29:18;10124210.0;;;8.15;51.1709
53089;BME280;38968;47.696;17.540;2023-02-20T03:34:20;10124040.0;;;8.14;52.64355
53089;BME280;38968;47.696;17.540;2023-02-20T03:39:15;10124450.0;;;8.03;54.47754
53089;BME280;38968;47.696;17.540;2023-02-20T03:44:13;10124930.0;;;7.71;55.94238
53089;BME280;38968;47.696;17.540;2023-02-20T03:49:15;10125390.0;;;7.9;55.66016
53089;BME280;38968;47.696;17.540;2023-02-20T03:54:13;10124240.0;;;7.78;55.33594
53089;BME280;38968;47.696;17.540;2023-02-20T03:59:17;10126130.0;;;7.63;56.83203
53089;BME280;38968;47.696;17.540;2023-02-20T04:04:16;10128290.0;;;7.57;56.91504
53089;BME280;38968;47.696;17.540;2023-02-20T04:09:15;10128570.0;;;7.18;58.72949
53089;BME280;38968;47.696;17.540;2023-02-20T04:14:13;10128700.0;;;6.99;60.78418
53089;BME280;38968;47.696;17.540;2023-02-20T04:19:13;10127950.0;;;7.13;60.39551
53089;BME280;38968;47.696;17.540;2023-02-20T04:24:23;10128990.0;;;6.71;62.94531
53089;BME280;38968;47.696;17.540;2023-02-20T04:29:13;10128170.0;;;6.9;63.2002
53089;BME280;38968;47.696;17.540;2023-02-20T04:34:12;10128200.0;;;7.1;62.28711
53089;BME280;38968;47.696;17.540;2023-02-20T04:39:13;10127400.0;;;6.94;63.61719
53089;BME280;38968;47.696;17.540;2023-02-20T04:44:13;10126450.0;;;6.96;64.36816
53089;BME280;38968;47.696;17.540;2023-02-20T04:49:12;10126620.0;;;6.55;65.22461
53089;BME280;38968;47.696;17.540;2023-02-20T04:54:13;10126530.0;;;6.55;65.30469
53089;BME280;38968;47.696;17.540;2023-02-20T04:59:12;10126260.0;;;6.46;66.37695
53089;BME280;38968;47.696;17.540;2023-02-20T05:04:14;10125690.0;;;6.66;66.2168
53089;BME280;38968;47.696;17.540;2023-02-20T05:09:13;10125700.0;;;6.71;65.45313
53089;BME280;38968;47.696;17.540;2023-02-20T05:14:13;10125460.0;;;6.35;66.68945
53089;BME280;38968;47.696;17.540;2023-02-20T05:19:13;10125530.0;;;6.32;66.31152
53089;BME280;38968;47.696;17.540;2023-02-20T05:24:13;10125400.0;;;6.5;66.67871
53089;BME280;38968;47.696;17.540;2023-02-20T05:29:13;10124800.0;;;6.52;66.24121
53089;BME280;38968;47.696;17.540;2023-02-20T05:34:13;10124080.0;;;6.84;65.49609
53089;BME280;38968;47.696;17.540;2023-02-20T05:39:12;10126370.0;;;7.01;65.20215
53089;BME280;38968;47.696;17.540;2023-02-20T05:44:13;10127440.0;;;7.2;64.55176
53089;BME280;38968;47.696;17.540;2023-02-20T05:49:13;10128410.0;;;7.28;64.91406
53089;BME280;38968;47.696;17.540;2023-02-20T05:54:12;10128330.0;;;7.32;64.48926
53089;BME280;38968;47.696;17.540;2023-02-20T05:59:16;10126460.0;;;7.04;65.91211
53089;BME280;38968;47.696;17.540;2023-02-20T06:04:13;10126890.0;;;7.01;65.65625
53089;BME280;38968;47.696;17.540;2023-02-20T06:09:13;10127180.0;;;7.19;66.10449
53089;BME280;38968;47.696;17.540;2023-02-20T06:14:14;10127890.0;;;7.31;65.80371
53089;BME280;38968;47.696;17.540;2023-02-20T06:19:20;10128950.0;;;7.38;66.02051
53089;BME280;38968;47.696;17.540;2023-02-20T06:24:13;10129390.0;;;7.45;65.38477
53089;BME280;38968;47.696;17.540;2023-02-20T06:29:14;10129090.0;;;7.21;65.84668
53089;BME280;38968;47.696;17.540;2023-02-20T06:34:14;10129590.0;;;7.09;66.62207
53089;BME280;38968;47.696;17.540;2023-02-20T06:39:13;10128880.0;;;7.03;67.17969
53089;BME280;38968;47.696;17.540;2023-02-20T06:44:13;10130260.0;;;6.99;67.90039
53089;BME280;38968;47.696;17.540;2023-02-20T06:49:13;10129890.0;;;6.83;68.09082
53089;BME280;38968;47.696;17.540;2023-02-20T06:54:13;10129900.0;;;6.92;68.7168
53089;BME280;38968;47.696;17.540;2023-02-20T06:59:13;10129690.0;;;6.73;68.60645
53089;BME280;38968;47.696;17.540;2023-02-20T07:04:20;10129590.0;;;6.66;69.63867
53089;BME280;38968;47.696;17.540;2023-02-20T07:09:13;10129640.0;;;6.88;69.01563
53089;BME280;38968;47.696;17.540;2023-02-20T07:14:13;10130360.0;;;7.06;68.43164
53089;BME280;38968;47.696;17.540;2023-02-20T07:19:12;10130790.0;;;7.05;68.08008
53089;BME280;38968;47.696;17.540;2023-02-20T07:24:13;10130290.0;;;7.13;68.17188
53089;BME280;38968;47.696;17.540;2023-02-20T07:29:13;10131020.0;;;6.87;68.58301
53089;BME280;38968;47.696;17.540;2023-02-20T07:34:13;10129340.0;;;6.3;70.13379
53089;BME280;38968;47.696;17.540;2023-02-20T07:39:12;10128940.0;;;6.85;68.7959
53089;BME280;38968;47.696;17.540;2023-02-20T07:44:13;10127990.0;;;6.9;68.89453
53089;BME280;38968;47.696;17.540;2023-02-20T07:49:13;10128920.0;;;7.25;67.96191
53089;BME280;38968;47.696;17.540;2023-02-20T07:54:13;10127890.0;;;7.29;67.00586
53089;BME280;38968;47.696;17.540;2023-02-20T07:59:13;10126830.0;;;7.18;67.39746
53089;BME280;38968;47.696;17.540;2023-02-20T08:04:12;10128000.0;;;7.39;66.70313
53089;BME280;38968;47.696;17.540;2023-02-20T08:09:12;10127870.0;;;7.68;65.56641
53089;BME280;38968;47.696;17.540;2023-02-20T08:14:14;10127940.0;;;7.54;64.97656
53089;BME280;38968;47.696;17.540;2023-02-20T08:19:13;10125350.0;;;7.63;65.43262
53089;BME280;38968;47.696;17.540;2023-02-20T08:24:12;10126940.0;;;7.28;65.21094
53089;BME280;38968;47.696;17.540;2023-02-20T08:29:13;10124770.0;;;7.79;64.75195
53089;BME280;38968;47.696;17.540;2023-02-20T08:34:13;10124640.0;;;8.16;63.45313
53089;BME280;38968;47.696;17.540;2023-02-20T08:39:12;10124070.0;;;8.36;62.06934
53089;BME280;38968;47.696;17.540;2023-02-20T08:44:13;10125030.0;;;8.41;62.23633
53089;BME280;38968;47.696;17.540;2023-02-20T08:49:13;10125390.0;;;8.48;61.81348
53089;BME280;38968;47.696;17.540;2023-02-20T08:54:14;10124020.0;;;8.7;60.94531
53089;BME280;38968;47.696;17.540;2023-02-20T08:59:12;10122700.0;;;8.58;62.26172
53089;BME280;38968;47.696;17.540;2023-02-20T09:04:13;10122660.0;;;8.9;61.1543
53089;BME280;38968;47.696;17.540;2023-02-20T09:09:12;10121720.0;;;9.08;60.71289
53089;BME280;38968;47.696;17.540;2023-02-20T09:14:13;10122460.0;;;8.69;61.59277
53089;BME280;38968;47.696;17.540;2023-02-20T09:19:12;10122210.0;;;8.86;61.21777
53089;BME280;38968;47.696;17.540;2023-02-20T09:24:13;10120970.0;;;8.63;62.2793
53089;BME280;38968;47.696;17.540;2023-02-20T09:29:13;10119990.0;;;9.21;61.46191
53089;BME280;38968;47.696;17.540;2023-02-20T09:34:12;10119160.0;;;9.74;60.67871
53089;BME280;38968;47.696;17.540;2023-02-20T09:39:13;10119350.0;;;10.07;59.4082
53089;BME280;38968;47.696;17.540;2023-02-20T09:49:15;10118230.0;;;10.36;60.71973
53089;BME280;38968;47.696;17.540;2023-02-20T10:04:14;10115200.0;;;11.42;58.27148
53089;BME280;38968;47.696;17.540;2023-02-20T10:09:14;10115890.0;;;11.67;57.12109
53089;BME280;38968;47.696;17.540;2023-02-20T10:14:33;10114490.0;;;11.87;56.26172
53089;BME280;38968;47.696;17.540;2023-02-20T10:19:31;10113710.0;;;11.87;56.90625
53089;BME280;38968;47.696;17.540;2023-02-20T10:29:21;10112270.0;;;12.6;55.76758
53089;BME280;38968;47.696;17.540;2023-02-20T10:34:16;10112820.0;;;12.17;56.18555
53089;BME280;38968;47.696;17.540;2023-02-20T10:39:14;10111840.0;;;12.49;54.84473
53089;BME280;38968;47.696;17.540;2023-02-20T10:44:21;10109730.0;;;12.74;55.2207
53089;BME280;38968;47.696;17.540;2023-02-20T10:49:18;10109170.0;;;13.14;54.70508
53089;BME280;38968;47.696;17.540;2023-02-20T10:54:18;10108270.0;;;13.45;53.56543
53089;BME280;38968;47.696;17.540;2023-02-20T10:59:24;10106320.0;;;13.68;53.0957
53089;BME280;38968;47.696;17.540;2023-02-20T11:04:18;10106080.0;;;13.45;53.35742
53089;BME280;38968;47.696;17.540;2023-02-20T11:09:12;10104740.0;;;14.35;51.50879
53089;BME280;38968;47.696;17.540;2023-02-20T11:14:32;10103810.0;;;14.1;52.42871
53089;BME280;38968;47.696;17.540;2023-02-20T11:19:18;10100990.0;;;14.2;51.60742
53089;BME280;38968;47.696;17.540;2023-02-20T11:24:30;10099440.0;;;13.97;51.35938
53089;BME280;38968;47.696;17.540;2023-02-20T11:29:14;10098230.0;;;13.88;51.28027
53089;BME280;38968;47.696;17.540;2023-02-20T11:34:20;10097410.0;;;14.08;51.38379
53089;BME280;38968;47.696;17.540;2023-02-20T11:39:26;10097000.0;;;13.92;52.05957
53089;BME280;38968;47.696;17.540;2023-02-20T11:44:21;10096550.0;;;13.95;50.61719
53089;BME280;38968;47.696;17.540;2023-02-20T11:49:26;10093850.0;;;14.41;51.06445
53089;BME280;38968;47.696;17.540;2023-02-20T11:59:27;10091720.0;;;15.47;48.02637
53089;BME280;38968;47.696;17.540;2023-02-20T12:04:23;10092130.0;;;15.64;47.125
53089;BME280;38968;47.696;17.540;2023-02-20T12:09:23;10091960.0;;;15.97;46.41406
53089;BME280;38968;47.696;17.540;2023-02-20T12:14:13;10090860.0;;;15.78;45.10254
53089;BME280;38968;47.696;17.540;2023-02-20T12:24:34;10087870.0;;;15.39;46.55176
53089;BME280;38968;47.696;17.540;2023-02-20T12:29:35;10087710.0;;;16.09;44.58594
53089;BME280;38968;47.696;17.540;2023-02-20T12:34:24;10087060.0;;;15.48;45.23438
53089;BME280;38968;47.696;17.540;2023-02-20T12:39:27;10085300.0;;;15.89;45.54395
53089;BME280;38968;47.696;17.540;2023-02-20T12:49:50;10085040.0;;;15.86;45.18066
53089;BME280;38968;47.696;17.540;2023-02-20T12:59:30;10086380.0;;;16.12;45.5918
53089;BME280;38968;47.696;17.540;2023-02-20T13:04:22;10086380.0;;;16.8;43.71289
53089;BME280;38968;47.696;17.540;2023-02-20T13:09:27;10084970.0;;;17.14;42.4834
53089;BME280;38968;47.696;17.540;2023-02-20T13:19:34;10083340.0;;;18.12;41.28809
53089;BME280;38968;47.696;17.540;2023-02-20T13:29:23;10079210.0;;;19.27;38.51367
53089;BME280;38968;47.696;17.540;2023-02-20T13:49:14;10077700.0;;;20.35;35.00977
53089;BME280;38968;47.696;17.540;2023-02-20T13:54:23;10075540.0;;;20.63;33.41309
53089;BME280;38968;47.696;17.540;2023-02-20T13:59:15;10075340.0;;;19.01;36.63281
53089;BME280;38968;47.696;17.540;2023-02-20T14:04:18;10073260.0;;;18.41;37.16016
53089;BME280;38968;47.696;17.540;2023-02-20T14:09:15;10073130.0;;;17.8;38.23438
53089;BME280;38968;47.696;17.540;2023-02-20T14:14:36;10071940.0;;;17.65;39.3584
53089;BME280;38968;47.696;17.540;2023-02-20T14:19:21;10073320.0;;;17.48;40.3623
53089;BME280;38968;47.696;17.540;2023-02-20T14:24:23;10073210.0;;;16.68;41.0957
53089;BME280;38968;47.696;17.540;2023-02-20T14:29:30;10072410.0;;;16.7;41.44727
53089;BME280;38968;47.696;17.540;2023-02-20T14:34:15;10072920.0;;;16.77;40.96484
53089;BME280;38968;47.696;17.540;2023-02-20T14:39:29;10072690.0;;;16.95;41.16699
53089;BME280;38968;47.696;17.540;2023-02-20T14:44:14;10072830.0;;;16.47;42.39551
53089;BME280;38968;47.696;17.540;2023-02-20T14:49:15;10072130.0;;;16.76;41.99023
53089;BME280;38968;47.696;17.540;2023-02-20T14:54:20;10070940.0;;;15.99;43.7373
53089;BME280;38968;47.696;17.540;2023-02-20T14:59:26;10071230.0;;;16.53;42.43652
53089;BME280;38968;47.696;17.540;2023-02-20T15:04:14;10070520.0;;;16.24;42.875
53089;BME280;38968;47.696;17.540;2023-02-20T15:09:14;10071410.0;;;16.2;43.45508
53089;BME280;38968;47.696;17.540;2023-02-20T15:14:23;10070930.0;;;16.35;43.07227
53089;BME280;38968;47.696;17.540;2023-02-20T15:19:20;10070150.0;;;16.33;43.32715
53089;BME280;38968;47.696;17.540;2023-02-20T15:24:27;10069670.0;;;16.13;43.76172
53089;BME280;38968;47.696;17.540;2023-02-20T15:34:18;10066650.0;;;16.23;43.65527
53089;BME280;38968;47.696;17.540;2023-02-20T15:39:13;10066620.0;;;16.05;44.08008
53089;BME280;38968;47.696;17.540;2023-02-20T15:44:13;10064080.0;;;16;44.01758
53089;BME280;38968;47.696;17.540;2023-02-20T15:49:13;10063820.0;;;15.99;44.0752
53089;BME280;38968;47.696;17.540;2023-02-20T15:54:14;10062780.0;;;15.93;44.2207
53089;BME280;38968;47.696;17.540;2023-02-20T15:59:13;10062700.0;;;15.92;44.23145
53089;BME280;38968;47.696;17.540;2023-02-20T16:04:15;10061610.0;;;15.73;44.6084
53089;BME280;38968;47.696;17.540;2023-02-20T16:09:13;10061100.0;;;15.66;44.7168
53089;BME280;38968;47.696;17.540;2023-02-20T16:14:14;10061190.0;;;15.66;44.64844
53089;BME280;38968;47.696;17.540;2023-02-20T16:19:21;10060220.0;;;15.67;44.69434
53089;BME280;38968;47.696;17.540;2023-02-20T16:24:13;10059360.0;;;15.57;44.78906
53089;BME280;38968;47.696;17.540;2023-02-20T16:29:21;10059650.0;;;15.49;44.89844
53089;BME280;38968;47.696;17.540;2023-02-20T16:34:13;10060600.0;;;15.57;45.21973
53089;BME280;38968;47.696;17.540;2023-02-20T16:39:13;10060320.0;;;15.27;45.52637
53089;BME280;38968;47.696;17.540;2023-02-20T16:44:36;10060060.0;;;14.93;46.23633
53089;BME280;38968;47.696;17.540;2023-02-20T16:49:13;10059710.0;;;14.91;46.57031
53089;BME280;38968;47.696;17.540;2023-02-20T16:54:13;10058120.0;;;14.95;46.27344
53089;BME280;38968;47.696;17.540;2023-02-20T16:59:13;10057270.0;;;14.83;46.39844
53089;BME280;38968;47.696;17.540;2023-02-20T17:04:13;10057020.0;;;14.8;46.17578
53089;BME280;38968;47.696;17.540;2023-02-20T17:09:13;10056590.0;;;14.77;46.23047
53089;BME280;38968;47.696;17.540;2023-02-20T17:14:13;10056860.0;;;14.69;46.15234
53089;BME280;38968;47.696;17.540;2023-02-20T17:19:13;10055760.0;;;14.55;46.09082
53089;BME280;38968;47.696;17.540;2023-02-20T17:24:14;10055770.0;;;14.51;46.10938
53089;BME280;38968;47.696;17.540;2023-02-20T17:29:14;10056750.0;;;14.44;46.12598
53089;BME280;38968;47.696;17.540;2023-02-20T17:34:13;10056830.0;;;14.46;45.9541
53089;BME280;38968;47.696;17.540;2023-02-20T17:39:18;10056420.0;;;14.31;46.14746
53089;BME280;38968;47.696;17.540;2023-02-20T17:44:20;10055740.0;;;14.24;46.15137
53089;BME280;38968;47.696;17.540;2023-02-20T17:49:14;10055610.0;;;14.02;46.23145
53089;BME280;38968;47.696;17.540;2023-02-20T17:54:13;10056840.0;;;14.01;46.39453
53089;BME280;38968;47.696;17.540;2023-02-20T17:59:14;10056250.0;;;13.44;47.12109
53089;BME280;38968;47.696;17.540;2023-02-20T18:04:13;10055900.0;;;13.43;47.23535
53089;BME280;38968;47.696;17.540;2023-02-20T18:09:15;10055930.0;;;13.31;47.45508
53089;BME280;38968;47.696;17.540;2023-02-20T18:14:14;10056150.0;;;13.54;46.83008
53089;BME280;38968;47.696;17.540;2023-02-20T18:19:14;10055080.0;;;13.61;46.36328
53089;BME280;38968;47.696;17.540;2023-02-20T18:24:16;10055860.0;;;13.21;47.26953
53089;BME280;38968;47.696;17.540;2023-02-20T18:29:13;10053660.0;;;13.27;47.18359
53089;BME280;38968;47.696;17.540;2023-02-20T18:34:13;10053590.0;;;13.17;47.58984
53089;BME280;38968;47.696;17.540;2023-02-20T18:39:14;10052880.0;;;13.22;47.68848
53089;BME280;38968;47.696;17.540;2023-02-20T18:44:14;10053090.0;;;13.02;48.03516
53089;BME280;38968;47.696;17.540;2023-02-20T18:49:14;10052040.0;;;13;48.50879
53089;BME280;38968;47.696;17.540;2023-02-20T18:54:18;10051150.0;;;13.12;48.625
53089;BME280;38968;47.696;17.540;2023-02-20T18:59:13;10051130.0;;;12.75;49.50781
53089;BME280;38968;47.696;17.540;2023-02-20T19:04:14;10049950.0;;;12.97;49.2793
53089;BME280;38968;47.696;17.540;2023-02-20T19:09:16;10050240.0;;;12.77;50.16992
53089;BME280;38968;47.696;17.540;2023-02-20T19:14:14;10050140.0;;;12.89;49.96289
53089;BME280;38968;47.696;17.540;2023-02-20T19:19:18;10049230.0;;;13.07;49.63672
53089;BME280;38968;47.696;17.540;2023-02-20T19:24:13;10048690.0;;;13.13;49.60938
53089;BME280;38968;47.696;17.540;2023-02-20T19:29:13;10047080.0;;;12.85;50.62793
53089;BME280;38968;47.696;17.540;2023-02-20T19:34:14;10047080.0;;;12.85;50.70898
53089;BME280;38968;47.696;17.540;2023-02-20T19:39:14;10046920.0;;;12.78;50.90918
53089;BME280;38968;47.696;17.540;2023-02-20T19:44:14;10047220.0;;;12.55;51.66797
53089;BME280;38968;47.696;17.540;2023-02-20T19:49:14;10046930.0;;;12.73;51.13477
53089;BME280;38968;47.696;17.540;2023-02-20T19:54:15;10046980.0;;;12.91;50.95898
53089;BME280;38968;47.696;17.540;2023-02-20T19:59:13;10047670.0;;;12.47;52.37402
53089;BME280;38968;47.696;17.540;2023-02-20T20:04:14;10046020.0;;;12.91;51.22461
53089;BME280;38968;47.696;17.540;2023-02-20T20:09:15;10046870.0;;;12.59;52.2832
53089;BME280;38968;47.696;17.540;2023-02-20T20:14:15;10047140.0;;;12.51;52.88672
53089;BME280;38968;47.696;17.540;2023-02-20T20:19:14;10046570.0;;;12.77;52.34082
53089;BME280;38968;47.696;17.540;2023-02-20T20:24:13;10046240.0;;;12.69;52.46777
53089;BME280;38968;47.696;17.540;2023-02-20T20:29:14;10045890.0;;;12.66;52.69629
53089;BME280;38968;47.696;17.540;2023-02-20T20:34:13;10045360.0;;;12.69;52.65332
53089;BME280;38968;47.696;17.540;2023-02-20T20:39:14;10045140.0;;;12.94;52.15137
53089;BME280;38968;47.696;17.540;2023-02-20T20:44:16;10045270.0;;;12.7;52.58496
53089;BME280;38968;47.696;17.540;2023-02-20T20:49:13;10044930.0;;;12.68;52.60547
53089;BME280;38968;47.696;17.540;2023-02-20T20:54:14;10045650.0;;;12.53;53.23438
53089;BME280;38968;47.696;17.540;2023-02-20T20:59:14;10045930.0;;;12.44;53.4082
53089;BME280;38968;47.696;17.540;2023-02-20T21:04:14;10045370.0;;;12.64;52.91309
53089;BME280;38968;47.696;17.540;2023-02-20T21:09:13;10046360.0;;;12.47;53.30762
53089;BME280;38968;47.696;17.540;2023-02-20T21:14:13;10044900.0;;;12.34;53.5791
53089;BME280;38968;47.696;17.540;2023-02-20T21:19:13;10044510.0;;;12.59;53.06836
53089;BME280;38968;47.696;17.540;2023-02-20T21:24:14;10044070.0;;;12.6;52.79199
53089;BME280;38968;47.696;17.540;2023-02-20T21:29:13;10042780.0;;;12.43;53.03711
53089;BME280;38968;47.696;17.540;2023-02-20T21:34:13;10041770.0;;;12.23;53.78516
53089;BME280;38968;47.696;17.540;2023-02-20T21:39:13;10040960.0;;;12.35;53.51172
53089;BME280;38968;47.696;17.540;2023-02-20T21:44:18;10041860.0;;;12.23;53.65918
53089;BME280;38968;47.696;17.540;2023-02-20T21:49:13;10041620.0;;;12.03;54.16504
53089;BME280;38968;47.696;17.540;2023-02-20T21:54:14;10041730.0;;;11.89;54.62988
53089;BME280;38968;47.696;17.540;2023-02-20T21:59:13;10042270.0;;;11.83;54.81641
53089;BME280;38968;47.696;17.540;2023-02-20T22:04:13;10043290.0;;;11.98;54.23828
53089;BME280;38968;47.696;17.540;2023-02-20T22:09:13;10042760.0;;;12.01;54.35645
53089;BME280;38968;47.696;17.540;2023-02-20T22:14:13;10042170.0;;;11.9;54.29688
53089;BME280;38968;47.696;17.540;2023-02-20T22:19:12;10041760.0;;;11.64;55.28906
53089;BME280;38968;47.696;17.540;2023-02-20T22:24:13;10042380.0;;;11.62;54.75684
53089;BME280;38968;47.696;17.540;2023-02-20T22:29:13;10041880.0;;;11.4;55.30469
53089;BME280;38968;47.696;17.540;2023-02-20T22:34:12;10041990.0;;;11.27;56.24219
53089;BME280;38968;47.696;17.540;2023-02-20T22:39:14;10040520.0;;;11.12;56.50977
53089;BME280;38968;47.696;17.540;2023-02-20T22:44:13;10040250.0;;;11.23;55.58105
53089;BME280;38968;47.696;17.540;2023-02-20T22:49:12;10040630.0;;;10.99;56.10254
53089;BME280;38968;47.696;17.540;2023-02-20T22:54:13;10040010.0;;;11.02;56.02539
53089;BME280;38968;47.696;17.540;2023-02-20T22:59:13;10040910.0;;;10.73;56.75781
53089;BME280;38968;47.696;17.540;2023-02-20T23:04:12;10041350.0;;;10.77;56.625
53089;BME280;38968;47.696;17.540;2023-02-20T23:09:13;10041880.0;;;10.69;57.29199
53089;BME280;38968;47.696;17.540;2023-02-20T23:14:14;10041250.0;;;10.87;56.89063
53089;BME280;38968;47.696;17.540;2023-02-20T23:19:13;10040190.0;;;10.96;56.36328
53089;BME280;38968;47.696;17.540;2023-02-20T23:24:13;10040370.0;;;10.98;55.98633
53089;BME280;38968;47.696;17.540;2023-02-20T23:29:12;10040830.0;;;10.66;56.77148
53089;BME280;38968;47.696;17.540;2023-02-20T23:34:13;10040130.0;;;10.76;55.44238
53089;BME280;38968;47.696;17.540;2023-02-20T23:39:13;10039600.0;;;10.79;55.29688
53089;BME280;38968;47.696;17.540;2023-02-20T23:44:12;10039350.0;;;10.65;55.41602
53089;BME280;38968;47.696;17.540;2023-02-20T23:49:13;10039780.0;;;10.73;55.40234
53089;BME280;38968;47.696;17.540;2023-02-20T23:54:13;10039520.0;;;10.76;55.02832
53089;BME280;38968;47.696;17.540;2023-02-20T23:59:13;10039870.0;;;10.67;55.39551
